CSCL Autumn — VRNA7 — position and weather

sailwx.info

Track history (hours):
 
Tides and Currents Weather Stations Pressure Air Temp Water Temp Dewpoint Dewpoint Depression Visibility Wind Speed Wind Dir Waves Ship Positions

CSCL Autumn

Last reported at 2018-Jan-19 21:00 UTC. Time now 2018-Jan-20 08:59 UTC.
Position N 54°54' W 141°36'.

Length 335 m; draft 13.4 m.

Type: Ship (hazmat cat A). MMSI: 477117900.

Wind from 320 at 18 knots

Barometer 1000.0 mb
Air temperature -1.0 ° C
Visibility: greater than 5.4 NM
Water temperature 6.0 ° C

Date/timePositionNaut miles runAvg speedWind from/ knotsBaromVisibWave heightAir tempDewpointWater temp
2018-Jan-19 21:00N 54°54' W 141°36'44219.2 320 / 181000.0 5.4 -1.0 6.0
2018-Jan-18 22:00N 54°48' W 154°24'85418.6 320 / 181000.0 5.4 -2.0 4.0
2018-Jan-17 00:00N 54°30' W 179°00'   300 / 171005.0 5.4 -5.0 4.0
2018-Jan-11 17:16N 34°57' E 130°43'2118.8
2018-Jan-11 16:09N 34°43' E 130°24'718.8
2018-Jan-11 15:48N 34°38' E 130°19'618.8
2018-Jan-11 15:30N 34°34' E 130°14'919.0
2018-Jan-11 15:00N 34°28' E 130°05'1019.1
2018-Jan-11 14:28N 34°21' E 129°56'45317.8
2018-Jan-10 13:03N 30°34' E 122°11'217.3
2018-Jan-10 12:57N 30°34' E 122°09'5 2.6
2018-Jan-10 11:12N 30°37' E 122°05'0 0.0
2018-Jan-10 10:51N 30°37' E 122°05'0 0.0
2018-Jan-10 10:27N 30°37' E 122°05'  
Track history (hours):
 
Tides and Currents Weather Stations Pressure Air Temp Water Temp Dewpoint Dewpoint Depression Visibility Wind Speed Wind Dir Waves Ship Positions

CSCL Autumn

Last reported at 2018-Jan-19 21:00 UTC. Time now 2018-Jan-20 08:59 UTC.
Position N 54°54' W 141°36'.

Length 335 m; draft 13.4 m.

Type: Ship (hazmat cat A). MMSI: 477117900.

Wind from 320 at 18 knots

Barometer 1000.0 mb
Air temperature -1.0 ° C
Visibility: greater than 5.4 NM
Water temperature 6.0 ° C

Date/timePositionNaut miles runAvg speedWind from/ knotsBaromVisibWave heightAir tempDewpointWater temp
2018-Jan-19 21:00N 54°54' W 141°36'44219.2 320 / 181000.0 5.4 -1.0 6.0
2018-Jan-18 22:00N 54°48' W 154°24'85418.6 320 / 181000.0 5.4 -2.0 4.0
2018-Jan-17 00:00N 54°30' W 179°00'   300 / 171005.0 5.4 -5.0 4.0
2018-Jan-11 17:16N 34°57' E 130°43'2118.8
2018-Jan-11 16:09N 34°43' E 130°24'718.8
2018-Jan-11 15:48N 34°38' E 130°19'618.8
2018-Jan-11 15:30N 34°34' E 130°14'919.0
2018-Jan-11 15:00N 34°28' E 130°05'1019.1
2018-Jan-11 14:28N 34°21' E 129°56'45317.8
2018-Jan-10 13:03N 30°34' E 122°11'217.3
2018-Jan-10 12:57N 30°34' E 122°09'5 2.6
2018-Jan-10 11:12N 30°37' E 122°05'0 0.0
2018-Jan-10 10:51N 30°37' E 122°05'0 0.0
2018-Jan-10 10:27N 30°37' E 122°05'  

Dump ship's entire track history